createdAt,value
2024-05-09T00:00:04.919Z,1019.23
2024-05-09T00:00:38.964Z,1019.23
2024-05-09T00:01:04.806Z,1019.23
2024-05-09T00:01:37.485Z,1019.23
2024-05-09T00:02:08.850Z,1019.13
2024-05-09T00:02:34.810Z,1019.23
2024-05-09T00:02:56.788Z,1019.23
2024-05-09T00:03:28.869Z,1019.23
2024-05-09T00:04:00.999Z,1019.44
2024-05-09T00:04:32.867Z,1019.44
2024-05-09T00:05:05.254Z,1019.44
2024-05-09T00:05:37.179Z,1019.44
2024-05-09T00:06:09.242Z,1019.13
2024-05-09T00:06:34.678Z,1019.34
2024-05-09T00:06:56.856Z,1019.34
2024-05-09T00:07:28.760Z,1019.34
2024-05-09T00:08:01.711Z,1019.34
2024-05-09T00:08:32.854Z,1019.34
2024-05-09T00:09:04.748Z,1019.23
2024-05-09T00:09:36.740Z,1019.23
2024-05-09T00:10:17.859Z,1019.34
2024-05-09T00:10:37.911Z,1019.34
2024-05-09T00:10:57.078Z,1019.34
2024-05-09T00:11:28.943Z,1019.34
2024-05-09T00:12:01.289Z,1019.13
2024-05-09T00:12:32.852Z,1019.13
2024-05-09T00:13:05.064Z,1019.13
2024-05-09T00:13:36.862Z,1019.13
2024-05-09T00:14:08.896Z,1019.44
2024-05-09T00:14:34.741Z,1019.13
2024-05-09T00:14:57.276Z,1019.13
2024-05-09T00:15:29.510Z,1019.13
2024-05-09T00:16:01.165Z,1019.23
2024-05-09T00:16:33.459Z,1019.23
2024-05-09T00:17:04.854Z,1019.34
2024-05-09T00:17:38.610Z,1019.34
2024-05-09T00:18:10.288Z,1019.23
2024-05-09T00:18:34.990Z,1019.23
2024-05-09T00:18:56.996Z,1019.23
2024-05-09T00:19:28.790Z,1019.23
2024-05-09T00:20:01.572Z,1019.23
2024-05-09T00:20:37.856Z,1019.23
2024-05-09T00:21:04.971Z,1019.23
2024-05-09T00:21:36.727Z,1019.23
2024-05-09T00:22:08.755Z,1018.93
2024-05-09T00:22:34.787Z,1019.13
2024-05-09T00:22:56.790Z,1019.13
2024-05-09T00:23:28.870Z,1019.13
2024-05-09T00:24:02.310Z,1019.34
2024-05-09T00:24:32.773Z,1019.34
2024-05-09T00:25:05.043Z,1019.34
2024-05-09T00:25:36.772Z,1019.34
2024-05-09T00:26:08.789Z,1019.13
2024-05-09T00:26:34.741Z,1019.34
2024-05-09T00:26:56.763Z,1019.34
2024-05-09T00:27:28.894Z,1019.34
2024-05-09T00:28:01.159Z,1019.13
2024-05-09T00:28:32.817Z,1019.13
2024-05-09T00:29:04.783Z,1019.34
2024-05-09T00:29:36.855Z,1019.34
2024-05-09T00:30:31.359Z,1019.13
2024-05-09T00:30:41.089Z,1019.03
2024-05-09T00:31:12.762Z,1019.03
2024-05-09T00:31:34.652Z,1019.13
2024-05-09T00:32:01.043Z,1019.13
2024-05-09T00:32:32.943Z,1019.13
2024-05-09T00:33:05.872Z,1019.34
2024-05-09T00:33:37.563Z,1019.34
2024-05-09T00:34:08.976Z,1019.13
2024-05-09T00:34:34.804Z,1019.23
2024-05-09T00:34:57.617Z,1019.23
2024-05-09T00:35:29.258Z,1019.23
2024-05-09T00:36:01.181Z,1019.23
2024-05-09T00:36:32.789Z,1019.23
2024-05-09T00:37:05.768Z,1019.34
2024-05-09T00:37:36.765Z,1019.34
2024-05-09T00:38:08.818Z,1019.34
2024-05-09T00:38:34.738Z,1019.03
2024-05-09T00:38:56.747Z,1019.03
2024-05-09T00:39:28.833Z,1019.03
2024-05-09T00:40:01.904Z,1019.13
2024-05-09T00:40:38.963Z,1019.13
2024-05-09T00:41:05.120Z,1019.34
2024-05-09T00:41:36.871Z,1019.34
2024-05-09T00:42:38.985Z,1019.23
2024-05-09T00:42:41.578Z,1019.13
2024-05-09T00:43:15.715Z,1019.13
2024-05-09T00:43:34.781Z,1019.34
2024-05-09T00:44:01.145Z,1019.34
2024-05-09T00:44:34.279Z,1019.34
2024-05-09T00:45:06.482Z,1019.13
2024-05-09T00:45:36.842Z,1019.13
2024-05-09T00:46:08.988Z,1019.34
2024-05-09T00:46:34.878Z,1019.34
2024-05-09T00:46:56.973Z,1019.34
2024-05-09T00:47:29.089Z,1019.34
2024-05-09T00:48:03.863Z,1019.54
2024-05-09T00:48:32.971Z,1019.54
2024-05-09T00:49:04.935Z,1019.34
2024-05-09T00:49:37.674Z,1019.34
2024-05-09T00:50:15.487Z,1019.23
2024-05-09T00:50:36.907Z,1019.23
2024-05-09T00:50:57.339Z,1019.23
2024-05-09T00:51:28.817Z,1019.23
2024-05-09T00:52:01.901Z,1019.23
2024-05-09T00:52:32.795Z,1019.23
2024-05-09T00:53:05.073Z,1019.34
2024-05-09T00:53:37.054Z,1019.34
2024-05-09T00:54:10.069Z,1019.34
2024-05-09T00:54:34.782Z,1019.23
2024-05-09T00:54:56.955Z,1019.23
2024-05-09T00:55:29.191Z,1019.23
2024-05-09T00:56:01.517Z,1019.23
2024-05-09T00:56:32.875Z,1019.23
2024-05-09T00:57:04.863Z,1019.23
2024-05-09T00:57:36.855Z,1019.23
2024-05-09T00:58:09.056Z,1019.23
2024-05-09T00:58:35.022Z,1019.03
2024-05-09T00:58:56.920Z,1019.03
2024-05-09T00:59:28.931Z,1019.03
2024-05-09T01:00:12.056Z,1019.13
2024-05-09T01:00:39.301Z,1019.13
2024-05-09T01:01:49.766Z,1019.13
2024-05-09T01:02:56.850Z,1019.13
2024-05-09T01:03:38.368Z,1019.13
2024-05-09T01:04:02.643Z,1019.34
2024-05-09T01:04:33.270Z,1019.34
2024-05-09T01:05:07.443Z,1019.13
2024-05-09T01:05:37.353Z,1019.13
2024-05-09T01:06:10.205Z,1019.23
2024-05-09T01:06:35.666Z,1019.13
2024-05-09T01:06:59.519Z,1019.13
2024-05-09T01:07:30.890Z,1019.13
2024-05-09T01:08:02.304Z,1019.13
2024-05-09T01:08:33.453Z,1019.13
2024-05-09T01:09:04.804Z,1019.23
2024-05-09T01:09:37.089Z,1019.23
2024-05-09T01:10:14.071Z,1019.23
2024-05-09T01:10:36.390Z,1019.13
2024-05-09T01:10:57.322Z,1019.13
2024-05-09T01:11:28.812Z,1019.13
2024-05-09T01:12:03.598Z,1019.13
2024-05-09T01:12:32.856Z,1019.13
2024-05-09T01:13:04.917Z,1019.23
2024-05-09T01:13:36.887Z,1019.23
2024-05-09T01:14:08.873Z,1019.13
2024-05-09T01:14:34.761Z,1019.13
2024-05-09T01:14:56.726Z,1019.13
2024-05-09T01:15:29.290Z,1019.13
2024-05-09T01:16:01.025Z,1019.13
2024-05-09T01:16:33.479Z,1019.13
2024-05-09T01:17:04.758Z,1019.03
2024-05-09T01:17:36.887Z,1019.03
2024-05-09T01:18:09.863Z,1019.03
2024-05-09T01:18:34.896Z,1019.03
2024-05-09T01:18:56.998Z,1019.03
2024-05-09T01:19:28.883Z,1019.03
2024-05-09T01:20:01.840Z,1019.13
2024-05-09T01:20:40.905Z,1019.13
2024-05-09T01:21:04.768Z,1019.03
2024-05-09T01:21:36.747Z,1019.03
2024-05-09T01:22:08.713Z,1019.23
2024-05-09T01:22:34.706Z,1019.13
2024-05-09T01:22:57.515Z,1019.13
2024-05-09T01:23:28.771Z,1019.13
2024-05-09T01:24:01.128Z,1018.93
2024-05-09T01:24:32.775Z,1018.93
2024-05-09T01:25:05.044Z,1019.03
2024-05-09T01:25:36.752Z,1019.03
2024-05-09T01:26:09.526Z,1018.93
2024-05-09T01:26:34.802Z,1019.03
2024-05-09T01:26:57.828Z,1019.03
2024-05-09T01:27:28.730Z,1019.03
2024-05-09T01:28:00.922Z,1019.03
2024-05-09T01:28:33.024Z,1019.03
2024-05-09T01:29:04.769Z,1018.93
2024-05-09T01:29:36.824Z,1018.93
2024-05-09T01:30:38.693Z,1018.83
2024-05-09T01:30:57.065Z,1018.83
2024-05-09T01:31:28.770Z,1018.83
2024-05-09T01:32:00.970Z,1018.83
2024-05-09T01:32:34.197Z,1018.83
2024-05-09T01:33:05.942Z,1019.03
2024-05-09T01:33:37.103Z,1019.03
2024-05-09T01:34:09.242Z,1019.03
2024-05-09T01:34:35.463Z,1019.03
2024-05-09T01:34:56.792Z,1019.03
2024-05-09T01:35:29.204Z,1019.03
2024-05-09T01:36:01.139Z,1018.83
2024-05-09T01:36:32.741Z,1018.83
2024-05-09T01:37:04.740Z,1018.83
2024-05-09T01:37:36.748Z,1018.83
2024-05-09T01:38:08.729Z,1019.03
2024-05-09T01:38:35.510Z,1019.13
2024-05-09T01:38:57.398Z,1019.13
2024-05-09T01:39:28.745Z,1019.13
2024-05-09T01:40:01.418Z,1018.93
2024-05-09T01:40:37.554Z,1018.93
2024-05-09T01:41:04.800Z,1019.03
2024-05-09T01:41:36.803Z,1019.03
2024-05-09T01:42:09.789Z,1019.13
2024-05-09T01:42:34.698Z,1018.93
2024-05-09T01:42:57.291Z,1018.93
2024-05-09T01:43:28.714Z,1018.93
2024-05-09T01:44:00.800Z,1018.83
2024-05-09T01:44:32.730Z,1018.83
2024-05-09T01:45:05.211Z,1018.93
2024-05-09T01:45:36.762Z,1018.93
2024-05-09T01:46:08.896Z,1018.93
2024-05-09T01:46:35.144Z,1019.03
2024-05-09T01:46:56.796Z,1019.03
2024-05-09T01:47:28.859Z,1019.03
2024-05-09T01:48:01.776Z,1018.93
2024-05-09T01:48:34.307Z,1018.93
2024-05-09T01:49:04.847Z,1019.13
2024-05-09T01:49:36.899Z,1019.13
2024-05-09T01:50:10.971Z,1018.93
2024-05-09T01:50:39.512Z,1019.13
2024-05-09T01:50:57.023Z,1019.13
2024-05-09T01:51:28.710Z,1019.13
2024-05-09T01:52:00.913Z,1018.83
2024-05-09T01:52:32.725Z,1018.83
2024-05-09T01:53:04.815Z,1019.13
2024-05-09T01:53:36.770Z,1019.13
2024-05-09T01:54:09.149Z,1019.03
2024-05-09T01:54:34.664Z,1018.93
2024-05-09T01:55:00.085Z,1018.93
2024-05-09T01:55:29.087Z,1018.93
2024-05-09T01:56:00.900Z,1019.03
2024-05-09T01:56:32.948Z,1019.03
2024-05-09T01:57:04.775Z,1018.93
2024-05-09T01:57:36.738Z,1018.93
2024-05-09T01:58:09.807Z,1019.03
2024-05-09T01:58:34.785Z,1019.13
2024-05-09T01:58:56.974Z,1019.13
2024-05-09T01:59:30.091Z,1019.13
2024-05-09T02:00:03.671Z,1019.03
2024-05-09T02:00:38.987Z,1019.03
2024-05-09T02:01:04.809Z,1019.03
2024-05-09T02:01:55.675Z,1019.03
2024-05-09T02:02:08.902Z,1018.93
2024-05-09T02:02:35.283Z,1018.93
2024-05-09T02:02:57.018Z,1018.93
2024-05-09T02:03:28.860Z,1018.93
2024-05-09T02:04:00.974Z,1019.03
2024-05-09T02:04:33.488Z,1019.03
2024-05-09T02:05:05.778Z,1018.93
2024-05-09T02:05:37.050Z,1018.93
2024-05-09T02:06:09.804Z,1019.13
2024-05-09T02:06:35.552Z,1018.93
2024-05-09T02:06:56.962Z,1018.93
2024-05-09T02:07:28.709Z,1018.93
2024-05-09T02:08:00.895Z,1018.83
2024-05-09T02:08:32.746Z,1018.83
2024-05-09T02:09:04.741Z,1018.93
2024-05-09T02:09:36.716Z,1018.93
2024-05-09T02:10:16.173Z,1018.83
2024-05-09T02:10:34.693Z,1019.03
2024-05-09T02:10:58.046Z,1019.03
2024-05-09T02:11:28.800Z,1019.03
2024-05-09T02:12:05.002Z,1019.03
2024-05-09T02:12:32.959Z,1019.03
2024-05-09T02:13:05.641Z,1018.93
2024-05-09T02:13:36.748Z,1018.93
2024-05-09T02:14:09.585Z,1019.03
2024-05-09T02:14:34.772Z,1018.93
2024-05-09T02:14:56.750Z,1018.93
2024-05-09T02:15:29.235Z,1018.93
2024-05-09T02:16:00.912Z,1018.93
2024-05-09T02:16:32.703Z,1018.93
2024-05-09T02:17:04.740Z,1018.83
2024-05-09T02:17:36.890Z,1018.83
2024-05-09T02:18:09.325Z,1018.93
2024-05-09T02:18:35.124Z,1019.03
2024-05-09T02:18:56.958Z,1019.03
2024-05-09T02:19:28.794Z,1019.03
2024-05-09T02:20:01.447Z,1018.93
2024-05-09T02:20:36.906Z,1018.93
2024-05-09T02:21:05.670Z,1018.83
2024-05-09T02:21:36.765Z,1018.83
2024-05-09T02:22:08.735Z,1018.93
2024-05-09T02:22:34.684Z,1019.03
2024-05-09T02:22:56.803Z,1019.03
2024-05-09T02:23:28.730Z,1019.03
2024-05-09T02:24:01.162Z,1019.03
2024-05-09T02:24:32.710Z,1019.03
2024-05-09T02:25:05.009Z,1019.13
2024-05-09T02:25:36.797Z,1019.13
2024-05-09T02:26:09.023Z,1019.23
2024-05-09T02:26:34.778Z,1018.93
2024-05-09T02:26:57.471Z,1018.93
2024-05-09T02:27:28.837Z,1018.93
2024-05-09T02:28:00.912Z,1019.03
2024-05-09T02:28:32.738Z,1019.03
2024-05-09T02:29:04.865Z,1019.23
2024-05-09T02:29:36.785Z,1019.23
2024-05-09T02:30:18.977Z,1018.93
2024-05-09T02:30:40.260Z,1019.13
2024-05-09T02:30:57.083Z,1019.13
2024-05-09T02:31:28.722Z,1019.13
2024-05-09T02:32:00.899Z,1019.03
2024-05-09T02:32:32.816Z,1019.03
2024-05-09T02:33:05.010Z,1018.83
2024-05-09T02:33:37.429Z,1018.83
2024-05-09T02:34:08.819Z,1019.23
2024-05-09T02:34:35.208Z,1019.03
2024-05-09T02:34:56.785Z,1019.03
2024-05-09T02:35:30.479Z,1019.03
2024-05-09T02:36:01.238Z,1019.03
2024-05-09T02:36:33.618Z,1019.03
2024-05-09T02:37:04.753Z,1019.13
2024-05-09T02:37:37.069Z,1019.13
2024-05-09T02:38:08.774Z,1019.13
2024-05-09T02:38:35.620Z,1018.83
2024-05-09T02:38:57.788Z,1018.83
2024-05-09T02:39:29.528Z,1018.83
2024-05-09T02:40:01.363Z,1019.03
2024-05-09T02:40:37.534Z,1019.03
2024-05-09T02:41:04.765Z,1018.93
2024-05-09T02:41:37.073Z,1018.93
2024-05-09T02:42:08.967Z,1019.13
2024-05-09T02:42:35.572Z,1018.93
2024-05-09T02:42:56.837Z,1018.93
2024-05-09T02:43:28.746Z,1018.93
2024-05-09T02:44:00.894Z,1019.13
2024-05-09T02:44:32.731Z,1019.13
2024-05-09T02:45:05.279Z,1019.13
2024-05-09T02:45:37.757Z,1019.13
2024-05-09T02:46:08.927Z,1018.83
2024-05-09T02:46:34.669Z,1019.13
2024-05-09T02:46:56.789Z,1019.13
2024-05-09T02:47:28.902Z,1019.13
2024-05-09T02:48:02.088Z,1019.13
2024-05-09T02:48:34.013Z,1019.13
2024-05-09T02:49:04.806Z,1019.13
2024-05-09T02:49:36.937Z,1019.13
2024-05-09T02:50:13.236Z,1018.83
2024-05-09T02:50:39.003Z,1018.83
2024-05-09T02:50:57.124Z,1018.83
2024-05-09T02:51:28.761Z,1018.83
2024-05-09T02:52:02.376Z,1019.03
2024-05-09T02:52:32.715Z,1019.03
2024-05-09T02:53:04.796Z,1019.03
2024-05-09T02:53:37.176Z,1019.03
2024-05-09T02:54:08.984Z,1018.93
2024-05-09T02:54:35.050Z,1018.93
2024-05-09T02:54:58.014Z,1018.93
2024-05-09T02:55:28.996Z,1018.93
2024-05-09T02:56:00.929Z,1018.83
2024-05-09T02:56:32.734Z,1018.83
2024-05-09T02:57:04.744Z,1018.83
2024-05-09T02:57:36.701Z,1018.83
2024-05-09T02:58:08.710Z,1019.13
2024-05-09T02:58:35.077Z,1018.83
2024-05-09T02:58:56.838Z,1018.83
2024-05-09T02:59:28.803Z,1018.83
2024-05-09T03:00:02.639Z,1018.83
2024-05-09T03:00:38.703Z,1018.83
2024-05-09T03:01:04.826Z,1019.03
2024-05-09T03:01:37.544Z,1019.03
2024-05-09T03:02:08.943Z,1018.73
2024-05-09T03:02:35.167Z,1018.93
2024-05-09T03:02:57.641Z,1018.93
2024-05-09T03:03:29.017Z,1018.93
2024-05-09T03:04:01.252Z,1018.93
2024-05-09T03:04:32.812Z,1018.93
2024-05-09T03:05:05.088Z,1018.83
2024-05-09T03:05:37.182Z,1018.83
2024-05-09T03:06:09.486Z,1019.03
2024-05-09T03:06:35.354Z,1018.93
2024-05-09T03:06:56.913Z,1018.93
2024-05-09T03:07:28.831Z,1018.93
2024-05-09T03:08:01.507Z,1018.93
2024-05-09T03:08:32.791Z,1018.93
2024-05-09T03:09:05.731Z,1018.93
2024-05-09T03:09:36.778Z,1018.93
2024-05-09T03:10:18.179Z,1019.13
2024-05-09T03:10:37.257Z,1018.93
2024-05-09T03:10:56.996Z,1018.93
2024-05-09T03:11:28.797Z,1018.93
2024-05-09T03:12:01.232Z,1018.93
2024-05-09T03:12:33.615Z,1018.93
2024-05-09T03:13:04.746Z,1019.03
2024-05-09T03:13:36.684Z,1019.03
2024-05-09T03:14:08.719Z,1018.93
2024-05-09T03:14:35.015Z,1018.83
2024-05-09T03:14:56.747Z,1018.83
2024-05-09T03:15:29.313Z,1018.83
2024-05-09T03:16:01.082Z,1019.03
2024-05-09T03:16:32.695Z,1019.03
2024-05-09T03:17:04.776Z,1018.83
2024-05-09T03:17:37.596Z,1018.83
2024-05-09T03:18:09.526Z,1018.93
2024-05-09T03:18:35.061Z,1018.83
2024-05-09T03:18:56.882Z,1018.83
2024-05-09T03:19:28.768Z,1018.83
2024-05-09T03:20:01.460Z,1018.93
2024-05-09T03:20:35.091Z,1018.93
2024-05-09T03:21:04.866Z,1019.03
2024-05-09T03:21:36.683Z,1019.03
2024-05-09T03:22:08.729Z,1018.93
2024-05-09T03:22:34.660Z,1018.83
2024-05-09T03:22:57.100Z,1018.83
2024-05-09T03:23:28.806Z,1018.83
2024-05-09T03:24:01.558Z,1019.03
2024-05-09T03:24:32.760Z,1019.03
2024-05-09T03:25:05.025Z,1019.03
2024-05-09T03:25:36.726Z,1019.03
2024-05-09T03:26:08.820Z,1018.93
2024-05-09T03:26:35.111Z,1019.23
2024-05-09T03:26:56.728Z,1019.23
2024-05-09T03:27:28.709Z,1019.23
2024-05-09T03:28:00.833Z,1019.23
2024-05-09T03:28:32.710Z,1019.23
2024-05-09T03:29:04.852Z,1019.03
2024-05-09T03:29:37.547Z,1019.03
2024-05-09T03:30:15.339Z,1018.83
2024-05-09T03:30:40.530Z,1018.93
2024-05-09T03:30:57.124Z,1018.93
2024-05-09T03:31:28.730Z,1018.93
2024-05-09T03:32:00.997Z,1019.23
2024-05-09T03:32:33.907Z,1019.23
2024-05-09T03:33:04.935Z,1019.13
2024-05-09T03:33:37.690Z,1019.13
2024-05-09T03:34:08.830Z,1019.13
2024-05-09T03:34:34.690Z,1019.03
2024-05-09T03:34:56.730Z,1019.03
2024-05-09T03:35:29.198Z,1019.03
2024-05-09T03:36:01.156Z,1019.03
2024-05-09T03:36:32.690Z,1019.03
2024-05-09T03:37:04.716Z,1018.93
2024-05-09T03:37:36.700Z,1018.93
2024-05-09T03:38:08.972Z,1019.13
2024-05-09T03:38:34.875Z,1019.13
2024-05-09T03:38:56.754Z,1019.13
2024-05-09T03:39:28.733Z,1019.13
2024-05-09T03:40:02.675Z,1018.93
2024-05-09T03:40:32.736Z,1018.93
2024-05-09T03:41:04.776Z,1019.03
2024-05-09T03:41:36.840Z,1019.03
2024-05-09T03:42:09.016Z,1019.13
2024-05-09T03:42:34.643Z,1019.13
2024-05-09T03:42:56.831Z,1019.13
2024-05-09T03:43:28.693Z,1019.13
2024-05-09T03:44:00.915Z,1018.93
2024-05-09T03:44:32.942Z,1018.93
2024-05-09T03:45:05.234Z,1018.93
2024-05-09T03:45:37.088Z,1018.93
2024-05-09T03:46:08.931Z,1019.03
2024-05-09T03:46:34.694Z,1019.03
2024-05-09T03:46:56.913Z,1019.03
2024-05-09T03:47:28.880Z,1019.03
2024-05-09T03:48:01.429Z,1018.93
2024-05-09T03:48:32.799Z,1018.93
2024-05-09T03:49:04.955Z,1018.93
2024-05-09T03:49:37.515Z,1018.93
2024-05-09T03:50:15.200Z,1019.03
2024-05-09T03:50:36.305Z,1019.13
2024-05-09T03:50:57.196Z,1019.13
2024-05-09T03:51:28.872Z,1019.13
2024-05-09T03:52:01.692Z,1018.93
2024-05-09T03:52:32.804Z,1018.93
2024-05-09T03:53:05.012Z,1018.93
2024-05-09T03:53:36.827Z,1018.93
2024-05-09T03:54:09.111Z,1018.93
2024-05-09T03:54:34.777Z,1019.13
2024-05-09T03:54:56.959Z,1019.13
2024-05-09T03:55:29.141Z,1019.13
2024-05-09T03:56:01.968Z,1019.03
2024-05-09T03:56:32.888Z,1019.03
2024-05-09T03:57:04.972Z,1018.93
2024-05-09T03:57:36.832Z,1018.93
2024-05-09T03:58:08.898Z,1018.93
2024-05-09T03:58:34.784Z,1018.93
2024-05-09T03:58:56.945Z,1018.93
2024-05-09T03:59:28.894Z,1018.93
2024-05-09T04:00:05.597Z,1019.13
2024-05-09T04:00:38.088Z,1019.13
2024-05-09T04:01:04.888Z,1019.13
2024-05-09T04:01:36.905Z,1019.13
2024-05-09T04:02:08.281Z,1019.13
2024-05-09T04:02:34.802Z,1019.03
2024-05-09T04:02:56.520Z,1019.03
2024-05-09T04:03:28.528Z,1019.03
2024-05-09T04:04:00.315Z,1019.03
2024-05-09T04:04:32.434Z,1019.03
2024-05-09T04:05:04.758Z,1019.03
2024-05-09T04:05:37.171Z,1019.03
2024-05-09T04:06:08.600Z,1019.23
2024-05-09T04:06:35.138Z,1019.23
2024-05-09T04:06:56.894Z,1019.23
2024-05-09T04:07:28.837Z,1019.23
2024-05-09T04:08:00.988Z,1018.93
2024-05-09T04:08:33.023Z,1018.93
2024-05-09T04:09:04.853Z,1019.03
2024-05-09T04:09:36.803Z,1019.03
2024-05-09T04:10:16.777Z,1019.34
2024-05-09T04:10:35.473Z,1019.13
2024-05-09T04:10:57.146Z,1019.13
2024-05-09T04:11:28.920Z,1019.13
2024-05-09T04:12:02.131Z,1019.03
2024-05-09T04:12:32.897Z,1019.03
2024-05-09T04:13:04.913Z,1019.03
2024-05-09T04:13:37.638Z,1019.03
2024-05-09T04:14:08.922Z,1019.03
2024-05-09T04:14:35.300Z,1019.23
2024-05-09T04:14:56.808Z,1019.23
2024-05-09T04:15:29.406Z,1019.23
2024-05-09T04:16:01.101Z,1019.13
2024-05-09T04:16:32.838Z,1019.13
2024-05-09T04:17:04.974Z,1019.23
2024-05-09T04:17:36.950Z,1019.23
2024-05-09T04:18:09.384Z,1019.13
2024-05-09T04:18:35.448Z,1019.03
2024-05-09T04:18:57.050Z,1019.03
2024-05-09T04:19:28.974Z,1019.03
2024-05-09T04:20:01.470Z,1019.23
2024-05-09T04:20:38.318Z,1019.23
2024-05-09T04:21:05.139Z,1019.13
2024-05-09T04:21:37.582Z,1019.13
2024-05-09T04:22:08.884Z,1019.44
2024-05-09T04:22:34.718Z,1019.23
2024-05-09T04:22:56.898Z,1019.23
2024-05-09T04:23:28.887Z,1019.23
2024-05-09T04:24:01.078Z,1019.13
2024-05-09T04:24:32.806Z,1019.13
2024-05-09T04:25:05.120Z,1019.23
2024-05-09T04:25:38.013Z,1019.23
2024-05-09T04:26:08.944Z,1019.13
2024-05-09T04:26:35.380Z,1019.23
2024-05-09T04:26:56.819Z,1019.23
2024-05-09T04:27:28.880Z,1019.23
2024-05-09T04:28:01.562Z,1019.23
2024-05-09T04:28:33.315Z,1019.23
2024-05-09T04:29:04.990Z,1019.13
2024-05-09T04:29:36.866Z,1019.13
2024-05-09T04:30:18.385Z,1019.34
2024-05-09T04:30:39.141Z,1019.13
2024-05-09T04:30:57.215Z,1019.13
2024-05-09T04:31:28.852Z,1019.13
2024-05-09T04:32:01.025Z,1019.34
2024-05-09T04:32:32.965Z,1019.34
2024-05-09T04:33:04.977Z,1019.03
2024-05-09T04:33:37.054Z,1019.03
2024-05-09T04:34:09.071Z,1019.34
2024-05-09T04:34:34.908Z,1019.13
2024-05-09T04:34:57.014Z,1019.13
2024-05-09T04:35:29.130Z,1019.13
2024-05-09T04:36:01.218Z,1019.23
2024-05-09T04:36:32.817Z,1019.23
2024-05-09T04:37:04.804Z,1019.03
2024-05-09T04:37:38.858Z,1019.03
2024-05-09T04:38:08.983Z,1019.03
2024-05-09T04:38:35.170Z,1019.23
2024-05-09T04:38:56.816Z,1019.23
2024-05-09T04:39:28.831Z,1019.23
2024-05-09T04:40:01.396Z,1019.03
2024-05-09T04:40:35.783Z,1019.03
2024-05-09T04:41:04.847Z,1019.23
2024-05-09T04:41:36.908Z,1019.23
2024-05-09T04:42:09.078Z,1019.13
2024-05-09T04:42:35.031Z,1019.34
2024-05-09T04:42:56.940Z,1019.34
2024-05-09T04:43:28.901Z,1019.34
2024-05-09T04:44:01.563Z,1019.23
2024-05-09T04:44:32.942Z,1019.23
2024-05-09T04:45:05.317Z,1019.13
2024-05-09T04:45:36.981Z,1019.13
2024-05-09T04:46:09.113Z,1019.03
2024-05-09T04:46:34.752Z,1019.34
2024-05-09T04:46:56.869Z,1019.34
2024-05-09T04:47:29.010Z,1019.34
2024-05-09T04:48:02.158Z,1019.34
2024-05-09T04:48:33.085Z,1019.34
2024-05-09T04:49:04.930Z,1019.44
2024-05-09T04:49:36.980Z,1019.44
2024-05-09T04:50:11.834Z,1019.23
2024-05-09T04:50:38.416Z,1019.23
2024-05-09T04:50:57.194Z,1019.23
2024-05-09T04:51:28.855Z,1019.23
2024-05-09T04:52:01.009Z,1019.44
2024-05-09T04:52:32.798Z,1019.44
2024-05-09T04:53:05.631Z,1019.34
2024-05-09T04:53:37.684Z,1019.34
2024-05-09T04:54:15.659Z,1019.23
2024-05-09T04:54:36.609Z,1019.44
2024-05-09T04:54:58.514Z,1019.44
2024-05-09T04:55:29.104Z,1019.44
2024-05-09T04:56:00.991Z,1019.44
2024-05-09T04:56:32.891Z,1019.44
2024-05-09T04:57:04.799Z,1019.34
2024-05-09T04:57:36.776Z,1019.34
2024-05-09T04:58:08.918Z,1019.23
2024-05-09T04:58:34.726Z,1019.23
2024-05-09T04:58:56.825Z,1019.23
2024-05-09T04:59:28.882Z,1019.23
2024-05-09T05:00:07.232Z,1019.23
2024-05-09T05:00:36.944Z,1019.23
2024-05-09T05:01:04.987Z,1019.34
2024-05-09T05:01:36.986Z,1019.34
2024-05-09T05:02:09.110Z,1019.54
2024-05-09T05:02:34.864Z,1019.44
2024-05-09T05:02:56.960Z,1019.44
2024-05-09T05:03:29.066Z,1019.44
2024-05-09T05:04:01.046Z,1019.54
2024-05-09T05:04:32.850Z,1019.54
2024-05-09T05:05:05.219Z,1019.34
2024-05-09T05:05:36.815Z,1019.34
2024-05-09T05:06:09.229Z,1019.23
2024-05-09T05:06:34.747Z,1019.54
2024-05-09T05:06:58.351Z,1019.54
2024-05-09T05:07:29.736Z,1019.54
2024-05-09T05:08:01.004Z,1019.44
2024-05-09T05:08:32.988Z,1019.44
2024-05-09T05:09:04.862Z,1019.23
2024-05-09T05:09:37.433Z,1019.23
2024-05-09T05:10:11.944Z,1019.34
2024-05-09T05:10:36.513Z,1019.23
2024-05-09T05:10:57.410Z,1019.23
2024-05-09T05:11:28.922Z,1019.23
2024-05-09T05:12:01.170Z,1019.23
2024-05-09T05:12:32.869Z,1019.23
2024-05-09T05:13:04.784Z,1019.23
2024-05-09T05:13:39.350Z,1019.23
2024-05-09T05:14:08.883Z,1019.34
2024-05-09T05:14:34.857Z,1019.23
2024-05-09T05:14:56.838Z,1019.23
2024-05-09T05:15:29.348Z,1019.23
2024-05-09T05:16:01.787Z,1019.44
2024-05-09T05:16:32.860Z,1019.44
2024-05-09T05:17:04.978Z,1019.34
2024-05-09T05:17:37.066Z,1019.34
2024-05-09T05:18:09.189Z,1019.23
2024-05-09T05:18:34.758Z,1019.44
2024-05-09T05:18:57.064Z,1019.44
2024-05-09T05:19:29.080Z,1019.44
2024-05-09T05:20:01.650Z,1019.44
2024-05-09T05:20:34.093Z,1019.44
2024-05-09T05:21:04.881Z,1019.44
2024-05-09T05:21:36.764Z,1019.44
2024-05-09T05:22:09.346Z,1019.44
2024-05-09T05:22:35.543Z,1019.23
2024-05-09T05:22:56.868Z,1019.23
2024-05-09T05:23:28.864Z,1019.23
2024-05-09T05:24:01.349Z,1019.13
2024-05-09T05:24:32.778Z,1019.13
2024-05-09T05:25:05.135Z,1019.34
2024-05-09T05:25:37.583Z,1019.34
2024-05-09T05:26:09.098Z,1019.34
2024-05-09T05:26:35.360Z,1019.34
2024-05-09T05:26:56.824Z,1019.34
2024-05-09T05:27:28.762Z,1019.34
2024-05-09T05:28:00.920Z,1019.23
2024-05-09T05:28:32.805Z,1019.23
2024-05-09T05:29:04.828Z,1019.54
2024-05-09T05:29:37.408Z,1019.54
2024-05-09T05:30:17.525Z,1019.34
2024-05-09T05:30:35.297Z,1019.64
2024-05-09T05:30:57.204Z,1019.64
2024-05-09T05:31:28.934Z,1019.64
2024-05-09T05:32:01.685Z,1019.44
2024-05-09T05:32:32.903Z,1019.44
2024-05-09T05:33:05.085Z,1019.54
2024-05-09T05:33:36.992Z,1019.54
2024-05-09T05:34:09.271Z,1019.64
2024-05-09T05:34:38.930Z,1019.44
2024-05-09T05:34:56.863Z,1019.44
2024-05-09T05:35:29.168Z,1019.44
2024-05-09T05:36:01.103Z,1019.44
2024-05-09T05:36:33.113Z,1019.44
2024-05-09T05:37:04.830Z,1019.44
2024-05-09T05:37:36.822Z,1019.44
2024-05-09T05:38:08.983Z,1019.74
2024-05-09T05:38:35.229Z,1019.44
2024-05-09T05:38:56.945Z,1019.44
2024-05-09T05:39:29.372Z,1019.44
2024-05-09T05:40:01.719Z,1019.44
2024-05-09T05:40:36.786Z,1019.44
2024-05-09T05:41:04.902Z,1019.44
2024-05-09T05:41:36.898Z,1019.44
2024-05-09T05:42:09.199Z,1019.74
2024-05-09T05:42:35.387Z,1019.64
2024-05-09T05:42:56.949Z,1019.64
2024-05-09T05:43:28.811Z,1019.64
2024-05-09T05:44:00.896Z,1019.34
2024-05-09T05:44:32.820Z,1019.34
2024-05-09T05:45:06.772Z,1019.64
2024-05-09T05:45:37.560Z,1019.64
2024-05-09T05:46:09.598Z,1019.44
2024-05-09T05:46:34.705Z,1019.23
2024-05-09T05:46:56.931Z,1019.23
2024-05-09T05:47:28.885Z,1019.23
2024-05-09T05:48:01.396Z,1019.64
2024-05-09T05:48:34.659Z,1019.64
2024-05-09T05:49:04.926Z,1019.44
2024-05-09T05:49:36.977Z,1019.44
2024-05-09T05:50:20.634Z,1019.44
2024-05-09T05:50:37.700Z,1019.54
2024-05-09T05:50:57.144Z,1019.54
2024-05-09T05:51:28.799Z,1019.54
2024-05-09T05:52:01.484Z,1019.64
2024-05-09T05:52:32.812Z,1019.64
2024-05-09T05:53:04.857Z,1019.64
2024-05-09T05:53:36.935Z,1019.64
2024-05-09T05:54:09.519Z,1019.44
2024-05-09T05:54:34.730Z,1019.54
2024-05-09T05:54:56.922Z,1019.54
2024-05-09T05:55:29.153Z,1019.54
2024-05-09T05:56:01.698Z,1019.64
2024-05-09T05:56:33.001Z,1019.64
2024-05-09T05:57:04.883Z,1019.54
2024-05-09T05:57:36.867Z,1019.54
2024-05-09T05:58:08.784Z,1019.64
2024-05-09T05:58:34.747Z,1019.44
2024-05-09T05:58:56.896Z,1019.44
2024-05-09T05:59:28.864Z,1019.44
2024-05-09T06:00:15.091Z,1019.74
2024-05-09T06:00:38.003Z,1019.74
2024-05-09T06:01:04.887Z,1019.64
2024-05-09T06:01:37.861Z,1019.64
2024-05-09T06:02:09.595Z,1019.74
2024-05-09T06:02:34.970Z,1019.54
2024-05-09T06:02:56.997Z,1019.54
2024-05-09T06:03:28.915Z,1019.54
2024-05-09T06:04:01.195Z,1019.64
2024-05-09T06:04:32.970Z,1019.64